sensor_id;sensor_type;location;lat;lon;timestamp;P1;durP1;ratioP1;P2;durP2;ratioP2
10823;SDS011;39116;59.332;18.034;2023-04-24T00:01:51;4.97;;;4.40;;
10823;SDS011;39116;59.332;18.034;2023-04-24T00:04:13;12.13;;;5.10;;
10823;SDS011;39116;59.332;18.034;2023-04-24T00:06:36;6.90;;;4.23;;
10823;SDS011;39116;59.332;18.034;2023-04-24T00:09:00;7.40;;;4.43;;
10823;SDS011;39116;59.332;18.034;2023-04-24T00:11:22;4.47;;;3.87;;
10823;SDS011;39116;59.332;18.034;2023-04-24T00:13:44;4.20;;;3.80;;
10823;SDS011;39116;59.332;18.034;2023-04-24T00:16:06;5.40;;;4.20;;
10823;SDS011;39116;59.332;18.034;2023-04-24T00:18:28;6.37;;;4.60;;
10823;SDS011;39116;59.332;18.034;2023-04-24T00:20:50;7.03;;;4.60;;
10823;SDS011;39116;59.332;18.034;2023-04-24T00:23:12;7.23;;;4.37;;
10823;SDS011;39116;59.332;18.034;2023-04-24T00:25:36;8.83;;;4.63;;
10823;SDS011;39116;59.332;18.034;2023-04-24T00:27:58;6.53;;;4.30;;
10823;SDS011;39116;59.332;18.034;2023-04-24T00:30:20;8.67;;;4.60;;
10823;SDS011;39116;59.332;18.034;2023-04-24T00:32:42;6.67;;;4.60;;
10823;SDS011;39116;59.332;18.034;2023-04-24T00:35:04;7.20;;;4.40;;
10823;SDS011;39116;59.332;18.034;2023-04-24T00:37:27;6.93;;;4.40;;
10823;SDS011;39116;59.332;18.034;2023-04-24T00:39:49;6.13;;;4.27;;
10823;SDS011;39116;59.332;18.034;2023-04-24T00:42:12;7.87;;;4.23;;
10823;SDS011;39116;59.332;18.034;2023-04-24T00:44:34;8.13;;;4.43;;
10823;SDS011;39116;59.332;18.034;2023-04-24T00:46:56;6.27;;;4.20;;
10823;SDS011;39116;59.332;18.034;2023-04-24T00:49:20;6.53;;;4.07;;
10823;SDS011;39116;59.332;18.034;2023-04-24T00:51:43;10.00;;;4.60;;
10823;SDS011;39116;59.332;18.034;2023-04-24T00:54:05;6.10;;;4.27;;
10823;SDS011;39116;59.332;18.034;2023-04-24T00:56:27;5.43;;;4.23;;
10823;SDS011;39116;59.332;18.034;2023-04-24T00:58:51;8.60;;;4.97;;
10823;SDS011;39116;59.332;18.034;2023-04-24T01:01:13;8.23;;;5.20;;
10823;SDS011;39116;59.332;18.034;2023-04-24T01:03:35;7.90;;;5.20;;
10823;SDS011;39116;59.332;18.034;2023-04-24T01:05:58;8.03;;;5.33;;
10823;SDS011;39116;59.332;18.034;2023-04-24T01:08:20;8.13;;;4.40;;
10823;SDS011;39116;59.332;18.034;2023-04-24T01:10:44;9.50;;;4.50;;
10823;SDS011;39116;59.332;18.034;2023-04-24T01:13:08;7.00;;;4.07;;
10823;SDS011;39116;59.332;18.034;2023-04-24T01:15:31;8.03;;;4.47;;
10823;SDS011;39116;59.332;18.034;2023-04-24T01:17:53;8.30;;;4.97;;
10823;SDS011;39116;59.332;18.034;2023-04-24T01:20:15;9.43;;;5.07;;
10823;SDS011;39116;59.332;18.034;2023-04-24T01:22:40;7.60;;;5.00;;
10823;SDS011;39116;59.332;18.034;2023-04-24T01:25:03;8.90;;;4.97;;
10823;SDS011;39116;59.332;18.034;2023-04-24T01:27:26;9.17;;;5.33;;
10823;SDS011;39116;59.332;18.034;2023-04-24T01:29:48;11.13;;;5.73;;
10823;SDS011;39116;59.332;18.034;2023-04-24T01:32:12;9.83;;;5.33;;
10823;SDS011;39116;59.332;18.034;2023-04-24T01:34:34;10.73;;;5.57;;
10823;SDS011;39116;59.332;18.034;2023-04-24T01:36:56;8.70;;;4.70;;
10823;SDS011;39116;59.332;18.034;2023-04-24T01:39:19;11.23;;;4.63;;
10823;SDS011;39116;59.332;18.034;2023-04-24T01:41:43;9.20;;;4.80;;
10823;SDS011;39116;59.332;18.034;2023-04-24T01:44:05;8.83;;;4.87;;
10823;SDS011;39116;59.332;18.034;2023-04-24T01:46:27;7.93;;;4.80;;
10823;SDS011;39116;59.332;18.034;2023-04-24T01:48:49;9.83;;;4.90;;
10823;SDS011;39116;59.332;18.034;2023-04-24T01:51:12;11.10;;;5.50;;
10823;SDS011;39116;59.332;18.034;2023-04-24T01:53:34;10.70;;;5.43;;
10823;SDS011;39116;59.332;18.034;2023-04-24T01:55:57;10.10;;;5.30;;
10823;SDS011;39116;59.332;18.034;2023-04-24T01:58:19;11.00;;;4.90;;
10823;SDS011;39116;59.332;18.034;2023-04-24T02:00:41;8.90;;;4.80;;
10823;SDS011;39116;59.332;18.034;2023-04-24T02:03:03;11.10;;;5.00;;
10823;SDS011;39116;59.332;18.034;2023-04-24T02:05:26;11.73;;;5.40;;
10823;SDS011;39116;59.332;18.034;2023-04-24T02:07:48;9.67;;;4.93;;
10823;SDS011;39116;59.332;18.034;2023-04-24T02:10:10;8.43;;;4.77;;
10823;SDS011;39116;59.332;18.034;2023-04-24T02:12:33;6.87;;;3.90;;
10823;SDS011;39116;59.332;18.034;2023-04-24T02:14:55;8.37;;;4.50;;
10823;SDS011;39116;59.332;18.034;2023-04-24T02:17:17;5.70;;;3.70;;
10823;SDS011;39116;59.332;18.034;2023-04-24T02:19:39;6.67;;;3.70;;
10823;SDS011;39116;59.332;18.034;2023-04-24T02:22:01;4.20;;;2.90;;
10823;SDS011;39116;59.332;18.034;2023-04-24T02:24:23;7.57;;;3.60;;
10823;SDS011;39116;59.332;18.034;2023-04-24T02:26:45;4.97;;;2.87;;
10823;SDS011;39116;59.332;18.034;2023-04-24T02:29:08;4.73;;;3.37;;
10823;SDS011;39116;59.332;18.034;2023-04-24T02:31:30;4.77;;;3.07;;
10823;SDS011;39116;59.332;18.034;2023-04-24T02:33:52;5.63;;;2.60;;
10823;SDS011;39116;59.332;18.034;2023-04-24T02:36:14;7.30;;;3.63;;
10823;SDS011;39116;59.332;18.034;2023-04-24T02:38:36;5.17;;;3.20;;
10823;SDS011;39116;59.332;18.034;2023-04-24T02:40:58;7.27;;;3.37;;
10823;SDS011;39116;59.332;18.034;2023-04-24T02:43:20;7.77;;;3.67;;
10823;SDS011;39116;59.332;18.034;2023-04-24T02:45:44;6.53;;;3.43;;
10823;SDS011;39116;59.332;18.034;2023-04-24T02:48:06;8.43;;;3.90;;
10823;SDS011;39116;59.332;18.034;2023-04-24T02:50:28;14.40;;;4.13;;
10823;SDS011;39116;59.332;18.034;2023-04-24T02:52:49;11.80;;;4.63;;
10823;SDS011;39116;59.332;18.034;2023-04-24T02:55:12;14.77;;;4.60;;
10823;SDS011;39116;59.332;18.034;2023-04-24T02:57:34;21.83;;;5.40;;
10823;SDS011;39116;59.332;18.034;2023-04-24T02:59:56;15.33;;;5.20;;
10823;SDS011;39116;59.332;18.034;2023-04-24T03:02:19;12.30;;;5.00;;
10823;SDS011;39116;59.332;18.034;2023-04-24T03:04:41;9.63;;;4.23;;
10823;SDS011;39116;59.332;18.034;2023-04-24T03:07:04;12.50;;;5.03;;
10823;SDS011;39116;59.332;18.034;2023-04-24T03:09:26;10.47;;;4.67;;
10823;SDS011;39116;59.332;18.034;2023-04-24T03:11:48;11.07;;;4.43;;
10823;SDS011;39116;59.332;18.034;2023-04-24T03:14:10;11.07;;;4.40;;
10823;SDS011;39116;59.332;18.034;2023-04-24T03:16:32;9.10;;;3.50;;
10823;SDS011;39116;59.332;18.034;2023-04-24T03:18:56;9.23;;;4.07;;
10823;SDS011;39116;59.332;18.034;2023-04-24T03:21:18;10.97;;;4.80;;
10823;SDS011;39116;59.332;18.034;2023-04-24T03:23:40;9.87;;;4.27;;
10823;SDS011;39116;59.332;18.034;2023-04-24T03:26:02;9.77;;;4.37;;
10823;SDS011;39116;59.332;18.034;2023-04-24T03:28:24;10.13;;;4.60;;
10823;SDS011;39116;59.332;18.034;2023-04-24T03:30:46;9.97;;;4.33;;
10823;SDS011;39116;59.332;18.034;2023-04-24T03:33:08;10.67;;;4.30;;
10823;SDS011;39116;59.332;18.034;2023-04-24T03:35:31;12.00;;;5.30;;
10823;SDS011;39116;59.332;18.034;2023-04-24T03:37:53;10.53;;;5.10;;
10823;SDS011;39116;59.332;18.034;2023-04-24T03:40:15;12.63;;;4.70;;
10823;SDS011;39116;59.332;18.034;2023-04-24T03:42:37;10.40;;;4.77;;
10823;SDS011;39116;59.332;18.034;2023-04-24T03:44:59;9.87;;;4.57;;
10823;SDS011;39116;59.332;18.034;2023-04-24T03:47:21;8.93;;;4.77;;
10823;SDS011;39116;59.332;18.034;2023-04-24T03:49:43;9.00;;;4.80;;
10823;SDS011;39116;59.332;18.034;2023-04-24T03:52:06;10.93;;;4.90;;
10823;SDS011;39116;59.332;18.034;2023-04-24T03:54:28;10.07;;;4.53;;
10823;SDS011;39116;59.332;18.034;2023-04-24T03:56:50;16.00;;;5.53;;
10823;SDS011;39116;59.332;18.034;2023-04-24T03:59:12;8.23;;;4.70;;
10823;SDS011;39116;59.332;18.034;2023-04-24T04:01:34;10.00;;;4.43;;
10823;SDS011;39116;59.332;18.034;2023-04-24T04:03:57;11.17;;;4.93;;
10823;SDS011;39116;59.332;18.034;2023-04-24T04:06:19;8.73;;;4.50;;
10823;SDS011;39116;59.332;18.034;2023-04-24T04:08:43;8.60;;;4.20;;
10823;SDS011;39116;59.332;18.034;2023-04-24T04:11:04;10.03;;;4.90;;
10823;SDS011;39116;59.332;18.034;2023-04-24T04:13:26;10.20;;;4.90;;
10823;SDS011;39116;59.332;18.034;2023-04-24T04:15:48;11.10;;;4.57;;
10823;SDS011;39116;59.332;18.034;2023-04-24T04:18:10;7.83;;;4.57;;
10823;SDS011;39116;59.332;18.034;2023-04-24T04:20:32;7.73;;;4.53;;
10823;SDS011;39116;59.332;18.034;2023-04-24T04:22:54;9.20;;;3.83;;
10823;SDS011;39116;59.332;18.034;2023-04-24T04:25:17;7.27;;;4.13;;
10823;SDS011;39116;59.332;18.034;2023-04-24T04:27:40;7.07;;;4.00;;
10823;SDS011;39116;59.332;18.034;2023-04-24T04:30:02;6.80;;;4.00;;
10823;SDS011;39116;59.332;18.034;2023-04-24T04:32:25;7.07;;;3.87;;
10823;SDS011;39116;59.332;18.034;2023-04-24T04:34:47;8.63;;;4.33;;
10823;SDS011;39116;59.332;18.034;2023-04-24T04:37:09;8.67;;;4.20;;
10823;SDS011;39116;59.332;18.034;2023-04-24T04:39:32;8.27;;;4.40;;
10823;SDS011;39116;59.332;18.034;2023-04-24T04:41:55;9.93;;;4.70;;
10823;SDS011;39116;59.332;18.034;2023-04-24T04:44:18;8.37;;;4.10;;
10823;SDS011;39116;59.332;18.034;2023-04-24T04:46:40;7.83;;;4.53;;
10823;SDS011;39116;59.332;18.034;2023-04-24T04:49:02;8.33;;;4.43;;
10823;SDS011;39116;59.332;18.034;2023-04-24T04:51:24;12.03;;;4.50;;
10823;SDS011;39116;59.332;18.034;2023-04-24T04:53:46;8.90;;;4.73;;
10823;SDS011;39116;59.332;18.034;2023-04-24T04:56:08;8.27;;;4.63;;
10823;SDS011;39116;59.332;18.034;2023-04-24T04:58:32;7.87;;;4.57;;
10823;SDS011;39116;59.332;18.034;2023-04-24T05:00:53;9.83;;;4.63;;
10823;SDS011;39116;59.332;18.034;2023-04-24T05:03:17;8.90;;;4.53;;
10823;SDS011;39116;59.332;18.034;2023-04-24T05:05:39;9.67;;;4.47;;
10823;SDS011;39116;59.332;18.034;2023-04-24T05:08:01;10.70;;;4.47;;
10823;SDS011;39116;59.332;18.034;2023-04-24T05:10:23;9.80;;;4.47;;
10823;SDS011;39116;59.332;18.034;2023-04-24T05:12:45;12.07;;;4.83;;
10823;SDS011;39116;59.332;18.034;2023-04-24T05:15:08;7.57;;;4.65;;
10823;SDS011;39116;59.332;18.034;2023-04-24T05:17:31;9.07;;;5.23;;
10823;SDS011;39116;59.332;18.034;2023-04-24T05:19:53;9.57;;;5.60;;
10823;SDS011;39116;59.332;18.034;2023-04-24T05:22:15;8.20;;;4.60;;
10823;SDS011;39116;59.332;18.034;2023-04-24T05:24:38;9.57;;;4.63;;
10823;SDS011;39116;59.332;18.034;2023-04-24T05:27:00;9.53;;;4.50;;
10823;SDS011;39116;59.332;18.034;2023-04-24T05:29:24;9.83;;;5.07;;
10823;SDS011;39116;59.332;18.034;2023-04-24T05:31:48;6.87;;;4.07;;
10823;SDS011;39116;59.332;18.034;2023-04-24T05:34:10;7.80;;;4.33;;
10823;SDS011;39116;59.332;18.034;2023-04-24T05:36:31;9.00;;;4.57;;
10823;SDS011;39116;59.332;18.034;2023-04-24T05:38:53;8.83;;;4.80;;
10823;SDS011;39116;59.332;18.034;2023-04-24T05:41:15;10.43;;;4.30;;
10823;SDS011;39116;59.332;18.034;2023-04-24T05:43:37;10.40;;;4.93;;
10823;SDS011;39116;59.332;18.034;2023-04-24T05:45:59;7.60;;;3.93;;
10823;SDS011;39116;59.332;18.034;2023-04-24T05:48:22;6.60;;;4.20;;
10823;SDS011;39116;59.332;18.034;2023-04-24T05:50:44;6.47;;;3.80;;
10823;SDS011;39116;59.332;18.034;2023-04-24T05:53:08;8.87;;;3.97;;
10823;SDS011;39116;59.332;18.034;2023-04-24T05:55:30;6.97;;;3.37;;
10823;SDS011;39116;59.332;18.034;2023-04-24T05:57:53;5.63;;;3.30;;
10823;SDS011;39116;59.332;18.034;2023-04-24T06:00:15;3.93;;;2.87;;
10823;SDS011;39116;59.332;18.034;2023-04-24T06:02:38;5.20;;;2.87;;
10823;SDS011;39116;59.332;18.034;2023-04-24T06:05:02;5.87;;;2.90;;
10823;SDS011;39116;59.332;18.034;2023-04-24T06:07:24;5.17;;;2.60;;
10823;SDS011;39116;59.332;18.034;2023-04-24T06:09:47;5.40;;;2.80;;
10823;SDS011;39116;59.332;18.034;2023-04-24T06:12:09;3.67;;;2.30;;
10823;SDS011;39116;59.332;18.034;2023-04-24T06:14:31;3.97;;;2.37;;
10823;SDS011;39116;59.332;18.034;2023-04-24T06:16:53;5.70;;;2.60;;
10823;SDS011;39116;59.332;18.034;2023-04-24T06:19:15;5.30;;;3.20;;
10823;SDS011;39116;59.332;18.034;2023-04-24T06:21:38;6.77;;;2.70;;
10823;SDS011;39116;59.332;18.034;2023-04-24T06:24:00;4.23;;;2.83;;
10823;SDS011;39116;59.332;18.034;2023-04-24T06:26:22;3.97;;;2.63;;
10823;SDS011;39116;59.332;18.034;2023-04-24T06:28:45;5.57;;;2.70;;
10823;SDS011;39116;59.332;18.034;2023-04-24T06:31:07;5.37;;;2.70;;
10823;SDS011;39116;59.332;18.034;2023-04-24T06:33:28;6.10;;;2.77;;
10823;SDS011;39116;59.332;18.034;2023-04-24T06:35:50;5.57;;;2.80;;
10823;SDS011;39116;59.332;18.034;2023-04-24T06:38:14;5.83;;;2.67;;
10823;SDS011;39116;59.332;18.034;2023-04-24T06:40:36;6.70;;;2.70;;
10823;SDS011;39116;59.332;18.034;2023-04-24T06:42:58;6.57;;;2.60;;
10823;SDS011;39116;59.332;18.034;2023-04-24T06:45:22;4.63;;;2.33;;
10823;SDS011;39116;59.332;18.034;2023-04-24T06:47:44;3.27;;;2.20;;
10823;SDS011;39116;59.332;18.034;2023-04-24T06:50:06;4.47;;;2.50;;
10823;SDS011;39116;59.332;18.034;2023-04-24T06:52:29;4.47;;;2.13;;
10823;SDS011;39116;59.332;18.034;2023-04-24T06:54:56;4.47;;;2.43;;
10823;SDS011;39116;59.332;18.034;2023-04-24T06:57:21;3.63;;;2.57;;
10823;SDS011;39116;59.332;18.034;2023-04-24T06:59:43;4.13;;;2.40;;
10823;SDS011;39116;59.332;18.034;2023-04-24T07:02:05;6.37;;;2.53;;
10823;SDS011;39116;59.332;18.034;2023-04-24T07:04:29;6.87;;;2.63;;
10823;SDS011;39116;59.332;18.034;2023-04-24T07:06:51;4.17;;;2.50;;
10823;SDS011;39116;59.332;18.034;2023-04-24T07:09:15;4.33;;;2.13;;
10823;SDS011;39116;59.332;18.034;2023-04-24T07:11:40;6.00;;;2.40;;
10823;SDS011;39116;59.332;18.034;2023-04-24T07:14:01;4.53;;;2.40;;
10823;SDS011;39116;59.332;18.034;2023-04-24T07:16:24;3.20;;;1.97;;
10823;SDS011;39116;59.332;18.034;2023-04-24T07:18:46;4.03;;;2.37;;
10823;SDS011;39116;59.332;18.034;2023-04-24T07:21:08;4.00;;;2.40;;
10823;SDS011;39116;59.332;18.034;2023-04-24T07:23:31;3.33;;;2.27;;
10823;SDS011;39116;59.332;18.034;2023-04-24T07:25:52;4.23;;;2.33;;
10823;SDS011;39116;59.332;18.034;2023-04-24T07:28:16;3.50;;;2.23;;
10823;SDS011;39116;59.332;18.034;2023-04-24T07:30:38;2.87;;;2.33;;
10823;SDS011;39116;59.332;18.034;2023-04-24T07:33:00;2.90;;;2.30;;
10823;SDS011;39116;59.332;18.034;2023-04-24T07:35:22;6.43;;;2.87;;
10823;SDS011;39116;59.332;18.034;2023-04-24T07:37:45;3.47;;;2.50;;
10823;SDS011;39116;59.332;18.034;2023-04-24T07:40:07;4.63;;;2.60;;
10823;SDS011;39116;59.332;18.034;2023-04-24T07:42:29;3.93;;;2.23;;
10823;SDS011;39116;59.332;18.034;2023-04-24T07:44:53;3.27;;;2.23;;
10823;SDS011;39116;59.332;18.034;2023-04-24T07:47:15;3.57;;;2.10;;
10823;SDS011;39116;59.332;18.034;2023-04-24T07:49:37;3.38;;;2.30;;
10823;SDS011;39116;59.332;18.034;2023-04-24T07:51:59;3.35;;;2.13;;
10823;SDS011;39116;59.332;18.034;2023-04-24T07:54:22;3.00;;;2.00;;
10823;SDS011;39116;59.332;18.034;2023-04-24T07:56:44;2.85;;;2.08;;
10823;SDS011;39116;59.332;18.034;2023-04-24T07:59:06;2.67;;;1.80;;
10823;SDS011;39116;59.332;18.034;2023-04-24T08:01:29;2.78;;;1.92;;
10823;SDS011;39116;59.332;18.034;2023-04-24T08:03:51;3.72;;;2.35;;
10823;SDS011;39116;59.332;18.034;2023-04-24T08:06:13;3.55;;;2.08;;
10823;SDS011;39116;59.332;18.034;2023-04-24T08:08:35;2.93;;;1.90;;
10823;SDS011;39116;59.332;18.034;2023-04-24T08:10:57;2.53;;;1.73;;
10823;SDS011;39116;59.332;18.034;2023-04-24T08:13:19;3.38;;;2.13;;
10823;SDS011;39116;59.332;18.034;2023-04-24T08:15:41;2.33;;;1.77;;
10823;SDS011;39116;59.332;18.034;2023-04-24T08:18:04;2.80;;;1.77;;
10823;SDS011;39116;59.332;18.034;2023-04-24T08:20:26;2.63;;;1.70;;
10823;SDS011;39116;59.332;18.034;2023-04-24T08:22:48;2.53;;;1.88;;
10823;SDS011;39116;59.332;18.034;2023-04-24T08:25:10;3.13;;;2.20;;
10823;SDS011;39116;59.332;18.034;2023-04-24T08:27:32;2.33;;;1.90;;
10823;SDS011;39116;59.332;18.034;2023-04-24T08:29:54;3.90;;;2.20;;
10823;SDS011;39116;59.332;18.034;2023-04-24T08:32:16;3.65;;;2.15;;
10823;SDS011;39116;59.332;18.034;2023-04-24T08:34:40;3.95;;;2.40;;
10823;SDS011;39116;59.332;18.034;2023-04-24T08:37:02;3.20;;;1.98;;
10823;SDS011;39116;59.332;18.034;2023-04-24T08:39:24;2.97;;;1.77;;
10823;SDS011;39116;59.332;18.034;2023-04-24T08:41:46;3.90;;;1.50;;
10823;SDS011;39116;59.332;18.034;2023-04-24T08:44:10;1.83;;;1.58;;
10823;SDS011;39116;59.332;18.034;2023-04-24T08:46:32;4.03;;;2.03;;
10823;SDS011;39116;59.332;18.034;2023-04-24T08:48:55;3.30;;;2.37;;
10823;SDS011;39116;59.332;18.034;2023-04-24T08:51:19;3.85;;;2.42;;
10823;SDS011;39116;59.332;18.034;2023-04-24T08:53:41;3.05;;;1.90;;
10823;SDS011;39116;59.332;18.034;2023-04-24T08:56:05;2.60;;;1.88;;
10823;SDS011;39116;59.332;18.034;2023-04-24T08:58:27;6.97;;;2.00;;
10823;SDS011;39116;59.332;18.034;2023-04-24T09:00:49;2.88;;;2.00;;
10823;SDS011;39116;59.332;18.034;2023-04-24T09:03:11;2.45;;;1.60;;
10823;SDS011;39116;59.332;18.034;2023-04-24T09:05:35;3.05;;;1.70;;
10823;SDS011;39116;59.332;18.034;2023-04-24T09:07:58;2.40;;;1.45;;
10823;SDS011;39116;59.332;18.034;2023-04-24T09:10:23;4.07;;;1.80;;
10823;SDS011;39116;59.332;18.034;2023-04-24T09:12:46;2.28;;;1.70;;
10823;SDS011;39116;59.332;18.034;2023-04-24T09:15:08;2.65;;;1.70;;
10823;SDS011;39116;59.332;18.034;2023-04-24T09:17:31;2.60;;;1.42;;
10823;SDS011;39116;59.332;18.034;2023-04-24T09:19:55;2.05;;;1.60;;
10823;SDS011;39116;59.332;18.034;2023-04-24T09:22:17;1.70;;;1.60;;
10823;SDS011;39116;59.332;18.034;2023-04-24T09:24:41;1.80;;;1.67;;
10823;SDS011;39116;59.332;18.034;2023-04-24T09:27:03;2.85;;;1.92;;
10823;SDS011;39116;59.332;18.034;2023-04-24T09:29:25;2.75;;;2.15;;
10823;SDS011;39116;59.332;18.034;2023-04-24T09:31:47;2.47;;;2.28;;
10823;SDS011;39116;59.332;18.034;2023-04-24T09:34:09;3.28;;;1.85;;
10823;SDS011;39116;59.332;18.034;2023-04-24T09:36:31;2.35;;;1.77;;
10823;SDS011;39116;59.332;18.034;2023-04-24T09:38:57;1.88;;;1.70;;
10823;SDS011;39116;59.332;18.034;2023-04-24T09:41:21;2.20;;;2.00;;
10823;SDS011;39116;59.332;18.034;2023-04-24T09:43:43;2.55;;;1.88;;
10823;SDS011;39116;59.332;18.034;2023-04-24T09:46:06;3.47;;;2.30;;
10823;SDS011;39116;59.332;18.034;2023-04-24T09:48:30;2.15;;;1.88;;
10823;SDS011;39116;59.332;18.034;2023-04-24T09:50:52;2.55;;;2.00;;
10823;SDS011;39116;59.332;18.034;2023-04-24T09:53:14;5.45;;;2.30;;
10823;SDS011;39116;59.332;18.034;2023-04-24T09:55:39;2.78;;;1.95;;
10823;SDS011;39116;59.332;18.034;2023-04-24T09:58:03;4.07;;;2.50;;
10823;SDS011;39116;59.332;18.034;2023-04-24T10:00:25;2.55;;;2.00;;
10823;SDS011;39116;59.332;18.034;2023-04-24T10:02:58;2.83;;;2.40;;
10823;SDS011;39116;59.332;18.034;2023-04-24T10:05:24;5.32;;;2.13;;
10823;SDS011;39116;59.332;18.034;2023-04-24T10:07:49;3.70;;;2.38;;
10823;SDS011;39116;59.332;18.034;2023-04-24T10:10:11;3.47;;;2.42;;
10823;SDS011;39116;59.332;18.034;2023-04-24T10:12:33;4.13;;;2.15;;
10823;SDS011;39116;59.332;18.034;2023-04-24T10:14:56;2.75;;;2.45;;
10823;SDS011;39116;59.332;18.034;2023-04-24T10:17:19;3.33;;;2.50;;
10823;SDS011;39116;59.332;18.034;2023-04-24T10:19:43;2.92;;;2.63;;
10823;SDS011;39116;59.332;18.034;2023-04-24T10:22:07;3.38;;;2.55;;
10823;SDS011;39116;59.332;18.034;2023-04-24T10:24:29;3.05;;;2.30;;
10823;SDS011;39116;59.332;18.034;2023-04-24T10:26:53;3.03;;;2.30;;
10823;SDS011;39116;59.332;18.034;2023-04-24T10:29:17;3.90;;;2.40;;
10823;SDS011;39116;59.332;18.034;2023-04-24T10:31:43;2.63;;;2.28;;
10823;SDS011;39116;59.332;18.034;2023-04-24T10:34:05;3.15;;;2.20;;
10823;SDS011;39116;59.332;18.034;2023-04-24T10:36:28;3.70;;;2.40;;
10823;SDS011;39116;59.332;18.034;2023-04-24T10:38:52;2.33;;;2.10;;
10823;SDS011;39116;59.332;18.034;2023-04-24T10:41:16;3.83;;;2.17;;
10823;SDS011;39116;59.332;18.034;2023-04-24T10:43:43;4.65;;;2.58;;
10823;SDS011;39116;59.332;18.034;2023-04-24T10:46:05;2.97;;;2.17;;
10823;SDS011;39116;59.332;18.034;2023-04-24T10:48:30;2.50;;;2.13;;
10823;SDS011;39116;59.332;18.034;2023-04-24T10:50:52;3.47;;;2.67;;
10823;SDS011;39116;59.332;18.034;2023-04-24T10:53:16;2.30;;;1.98;;
10823;SDS011;39116;59.332;18.034;2023-04-24T10:55:40;4.38;;;2.40;;
10823;SDS011;39116;59.332;18.034;2023-04-24T10:58:04;3.58;;;2.45;;
10823;SDS011;39116;59.332;18.034;2023-04-24T11:00:26;5.22;;;2.40;;
10823;SDS011;39116;59.332;18.034;2023-04-24T11:02:48;4.15;;;2.67;;
10823;SDS011;39116;59.332;18.034;2023-04-24T11:05:14;4.22;;;2.47;;
10823;SDS011;39116;59.332;18.034;2023-04-24T11:10:32;7.00;;;2.40;;
10823;SDS011;39116;59.332;18.034;2023-04-24T11:12:54;3.00;;;2.22;;
10823;SDS011;39116;59.332;18.034;2023-04-24T11:15:16;4.25;;;2.25;;
10823;SDS011;39116;59.332;18.034;2023-04-24T11:17:40;5.13;;;2.28;;
10823;SDS011;39116;59.332;18.034;2023-04-24T11:20:06;6.47;;;2.45;;
10823;SDS011;39116;59.332;18.034;2023-04-24T11:22:31;2.70;;;2.00;;
10823;SDS011;39116;59.332;18.034;2023-04-24T11:24:55;2.58;;;1.83;;
10823;SDS011;39116;59.332;18.034;2023-04-24T11:27:18;5.45;;;2.28;;
10823;SDS011;39116;59.332;18.034;2023-04-24T11:29:41;2.35;;;1.98;;
10823;SDS011;39116;59.332;18.034;2023-04-24T11:32:14;4.07;;;2.30;;
10823;SDS011;39116;59.332;18.034;2023-04-24T11:34:38;3.17;;;2.30;;
10823;SDS011;39116;59.332;18.034;2023-04-24T11:37:00;3.10;;;2.47;;
10823;SDS011;39116;59.332;18.034;2023-04-24T11:39:25;3.13;;;1.80;;
10823;SDS011;39116;59.332;18.034;2023-04-24T11:41:46;3.83;;;2.47;;
10823;SDS011;39116;59.332;18.034;2023-04-24T11:44:09;4.03;;;2.40;;
10823;SDS011;39116;59.332;18.034;2023-04-24T11:46:31;5.10;;;2.67;;
10823;SDS011;39116;59.332;18.034;2023-04-24T11:48:53;3.72;;;2.40;;
10823;SDS011;39116;59.332;18.034;2023-04-24T11:51:15;3.53;;;2.60;;
10823;SDS011;39116;59.332;18.034;2023-04-24T11:53:37;4.45;;;2.40;;
10823;SDS011;39116;59.332;18.034;2023-04-24T11:56:03;3.03;;;2.72;;
10823;SDS011;39116;59.332;18.034;2023-04-24T11:58:26;3.53;;;2.97;;
10823;SDS011;39116;59.332;18.034;2023-04-24T12:00:54;3.25;;;2.88;;
10823;SDS011;39116;59.332;18.034;2023-04-24T12:03:17;4.15;;;2.83;;
10823;SDS011;39116;59.332;18.034;2023-04-24T12:05:39;3.25;;;2.50;;
10823;SDS011;39116;59.332;18.034;2023-04-24T12:08:01;4.93;;;3.05;;
10823;SDS011;39116;59.332;18.034;2023-04-24T12:10:23;3.38;;;2.83;;
10823;SDS011;39116;59.332;18.034;2023-04-24T12:12:48;4.57;;;3.22;;
10823;SDS011;39116;59.332;18.034;2023-04-24T12:15:11;3.53;;;2.80;;
10823;SDS011;39116;59.332;18.034;2023-04-24T12:17:34;3.85;;;3.00;;
10823;SDS011;39116;59.332;18.034;2023-04-24T12:19:57;10.63;;;3.05;;
10823;SDS011;39116;59.332;18.034;2023-04-24T12:22:21;8.88;;;3.10;;
10823;SDS011;39116;59.332;18.034;2023-04-24T12:24:55;5.10;;;3.22;;
10823;SDS011;39116;59.332;18.034;2023-04-24T12:27:19;5.22;;;2.97;;
10823;SDS011;39116;59.332;18.034;2023-04-24T12:29:52;6.22;;;3.40;;
10823;SDS011;39116;59.332;18.034;2023-04-24T12:32:15;5.45;;;3.25;;
10823;SDS011;39116;59.332;18.034;2023-04-24T12:34:37;4.50;;;2.90;;
10823;SDS011;39116;59.332;18.034;2023-04-24T12:37:09;6.63;;;2.83;;
10823;SDS011;39116;59.332;18.034;2023-04-24T12:39:31;3.03;;;2.55;;
10823;SDS011;39116;59.332;18.034;2023-04-24T12:41:56;6.25;;;2.78;;
10823;SDS011;39116;59.332;18.034;2023-04-24T12:44:19;5.53;;;2.78;;
10823;SDS011;39116;59.332;18.034;2023-04-24T12:46:43;4.82;;;2.67;;
10823;SDS011;39116;59.332;18.034;2023-04-24T12:49:05;5.70;;;2.92;;
10823;SDS011;39116;59.332;18.034;2023-04-24T12:51:27;3.75;;;2.72;;
10823;SDS011;39116;59.332;18.034;2023-04-24T12:53:49;4.78;;;3.58;;
10823;SDS011;39116;59.332;18.034;2023-04-24T12:56:11;5.88;;;3.60;;
10823;SDS011;39116;59.332;18.034;2023-04-24T12:58:32;4.30;;;3.38;;
10823;SDS011;39116;59.332;18.034;2023-04-24T13:00:54;6.57;;;3.33;;
10823;SDS011;39116;59.332;18.034;2023-04-24T13:03:18;7.43;;;3.15;;
10823;SDS011;39116;59.332;18.034;2023-04-24T13:05:42;5.18;;;3.13;;
10823;SDS011;39116;59.332;18.034;2023-04-24T13:08:04;4.43;;;3.08;;
10823;SDS011;39116;59.332;18.034;2023-04-24T13:10:26;7.53;;;3.70;;
10823;SDS011;39116;59.332;18.034;2023-04-24T13:12:49;4.15;;;3.20;;
10823;SDS011;39116;59.332;18.034;2023-04-24T13:15:11;5.53;;;3.80;;
10823;SDS011;39116;59.332;18.034;2023-04-24T13:17:33;5.30;;;3.15;;
10823;SDS011;39116;59.332;18.034;2023-04-24T13:19:56;4.53;;;3.33;;
10823;SDS011;39116;59.332;18.034;2023-04-24T13:22:18;5.63;;;3.33;;
10823;SDS011;39116;59.332;18.034;2023-04-24T13:24:40;5.85;;;3.15;;
10823;SDS011;39116;59.332;18.034;2023-04-24T13:27:02;6.72;;;3.58;;
10823;SDS011;39116;59.332;18.034;2023-04-24T13:29:25;8.98;;;3.58;;
10823;SDS011;39116;59.332;18.034;2023-04-24T13:31:47;5.18;;;3.60;;
10823;SDS011;39116;59.332;18.034;2023-04-24T13:34:09;4.18;;;3.28;;
10823;SDS011;39116;59.332;18.034;2023-04-24T13:36:33;5.40;;;3.20;;
10823;SDS011;39116;59.332;18.034;2023-04-24T13:38:55;5.40;;;3.72;;
10823;SDS011;39116;59.332;18.034;2023-04-24T13:41:17;7.00;;;3.13;;
10823;SDS011;39116;59.332;18.034;2023-04-24T13:43:39;4.25;;;2.80;;
10823;SDS011;39116;59.332;18.034;2023-04-24T13:46:02;3.40;;;2.70;;
10823;SDS011;39116;59.332;18.034;2023-04-24T13:48:24;5.32;;;3.55;;
10823;SDS011;39116;59.332;18.034;2023-04-24T13:50:45;4.65;;;3.05;;
10823;SDS011;39116;59.332;18.034;2023-04-24T13:53:10;5.43;;;3.40;;
10823;SDS011;39116;59.332;18.034;2023-04-24T13:55:32;5.10;;;3.45;;
10823;SDS011;39116;59.332;18.034;2023-04-24T13:57:54;8.02;;;3.60;;
10823;SDS011;39116;59.332;18.034;2023-04-24T14:00:17;4.05;;;3.03;;
10823;SDS011;39116;59.332;18.034;2023-04-24T14:02:39;4.55;;;3.17;;
10823;SDS011;39116;59.332;18.034;2023-04-24T14:05:01;5.97;;;3.15;;
10823;SDS011;39116;59.332;18.034;2023-04-24T14:07:23;4.40;;;3.45;;
10823;SDS011;39116;59.332;18.034;2023-04-24T14:09:47;7.13;;;3.63;;